Time;durP1;ratioP1;P1;durP2;ratioP2;P2;SDS_P1;SDS_P2;PMS_P1;PMS_P2;Temp;Humidity;BMP_temperature;BMP_pressure;BME280_temperature;BME280_humidity;BME280_pressure;Samples;Min_cycle;Max_cycle;Signal;HPM_P1;HPM_P2
2023/07/15 00:02:10;;;;;;;2.70;2.10;;;22.70;44.30;;;;;;5072310;28;20415;-70
2023/07/15 00:04:37;;;;;;;2.10;1.90;;;22.70;44.50;;;;;;5072370;28;20474;-69
2023/07/15 00:07:05;;;;;;;2.83;2.20;;;22.60;44.50;;;;;;5072468;28;20550;-70
2023/07/15 00:09:34;;;;;;;2.30;1.77;;;22.60;44.60;;;;;;5071047;28;20411;-70
2023/07/15 00:12:01;;;;;;;2.42;1.80;;;22.60;44.70;;;;;;5070545;28;20459;-70
2023/07/15 00:14:29;;;;;;;2.80;2.00;;;22.60;45.00;;;;;;5071705;28;20438;-70
2023/07/15 00:16:57;;;;;;;4.20;2.10;;;22.60;44.90;;;;;;5071594;28;20496;-70
2023/07/15 00:19:23;;;;;;;2.30;2.10;;;22.50;45.20;;;;;;5071516;28;20905;-70
2023/07/15 00:21:50;;;;;;;2.90;2.25;;;22.60;45.70;;;;;;5071480;28;20914;-70
2023/07/15 00:24:17;;;;;;;2.70;2.00;;;22.50;45.40;;;;;;5071265;28;20431;-70
2023/07/15 00:26:47;;;;;;;2.90;2.22;;;22.50;46.00;;;;;;5070524;28;20439;-70
2023/07/15 00:29:14;;;;;;;3.67;2.00;;;22.40;46.40;;;;;;5071026;28;20790;-71
2023/07/15 00:31:42;;;;;;;3.42;2.20;;;22.40;46.70;;;;;;5071425;28;20416;-70
2023/07/15 00:34:11;;;;;;;2.70;2.17;;;22.40;46.60;;;;;;5071565;28;20416;-70
2023/07/15 00:36:37;;;;;;;2.72;1.80;;;22.30;46.80;;;;;;5071377;28;20920;-70
2023/07/15 00:39:05;;;;;;;3.13;2.40;;;22.30;47.50;;;;;;5078314;28;20412;-70
2023/07/15 00:41:34;;;;;;;2.80;2.00;;;22.30;47.90;;;;;;5071017;28;20435;-71
2023/07/15 00:44:03;;;;;;;4.40;2.30;;;22.30;48.40;;;;;;5063646;28;20753;-70
2023/07/15 00:46:59;;;;;;;3.60;2.10;;;22.20;48.10;;;;;;5072076;28;20465;-69
2023/07/15 00:49:28;;;;;;;3.42;2.20;;;22.20;48.60;;;;;;5065960;28;20440;-70
2023/07/15 00:52:03;;;;;;;3.92;1.92;;;22.20;49.00;;;;;;5070953;28;20412;-70
2023/07/15 00:54:33;;;;;;;3.83;2.40;;;22.20;49.10;;;;;;5070776;28;20411;-70
2023/07/15 00:57:01;;;;;;;3.97;2.10;;;22.10;49.50;;;;;;5070358;28;20443;-70
2023/07/15 00:59:29;;;;;;;3.78;2.17;;;22.10;49.50;;;;;;5070454;28;20830;-69
2023/07/15 01:01:57;;;;;;;2.70;1.80;;;22.10;49.90;;;;;;5070754;28;20415;-71
2023/07/15 01:04:24;;;;;;;3.03;2.10;;;22.00;50.50;;;;;;5070790;28;20947;-70
2023/07/15 01:06:52;;;;;;;3.47;2.40;;;22.00;50.90;;;;;;5070732;28;20418;-71
2023/07/15 01:09:19;;;;;;;3.20;2.10;;;22.00;51.40;;;;;;5069659;28;20419;-71
2023/07/15 01:11:46;;;;;;;2.70;2.10;;;22.00;52.10;;;;;;5069058;28;20526;-70
2023/07/15 01:14:13;;;;;;;3.37;1.97;;;21.90;52.10;;;;;;5070589;28;20439;-70
2023/07/15 01:16:40;;;;;;;4.80;2.20;;;21.90;52.70;;;;;;5070182;28;20419;-70
2023/07/15 01:19:08;;;;;;;3.70;2.10;;;21.90;51.50;;;;;;5069857;28;20416;-71
2023/07/15 01:21:36;;;;;;;3.70;2.00;;;21.90;51.90;;;;;;5070026;28;20415;-70
2023/07/15 01:24:06;;;;;;;3.25;2.05;;;21.80;53.10;;;;;;5069853;28;20833;-70
2023/07/15 01:26:33;;;;;;;3.30;2.10;;;21.80;53.40;;;;;;5069489;28;20512;-70
2023/07/15 01:29:00;;;;;;;3.08;2.00;;;21.80;53.90;;;;;;5049866;28;20499;-71
2023/07/15 01:31:27;;;;;;;3.15;2.20;;;21.80;53.00;;;;;;5050396;28;20911;-70
2023/07/15 01:33:54;;;;;;;2.85;2.10;;;21.70;53.70;;;;;;5052104;28;20918;-70
2023/07/15 01:36:21;;;;;;;2.60;1.90;;;21.70;53.60;;;;;;5073470;28;20417;-71
2023/07/15 01:38:48;;;;;;;3.70;2.20;;;21.70;53.30;;;;;;5073475;28;20442;-70
2023/07/15 01:41:16;;;;;;;2.63;2.00;;;21.70;53.60;;;;;;5087910;28;20431;-71
2023/07/15 01:43:43;;;;;;;4.57;2.50;;;21.60;53.20;;;;;;5073146;28;20412;-70
2023/07/15 01:46:10;;;;;;;3.47;1.90;;;21.60;53.50;;;;;;5069777;28;20423;-70
2023/07/15 01:48:37;;;;;;;2.92;2.40;;;21.60;53.40;;;;;;5069763;28;20424;-70
2023/07/15 01:51:03;;;;;;;3.42;2.10;;;21.60;53.20;;;;;;5067896;28;20914;-70
2023/07/15 01:53:30;;;;;;;4.50;2.10;;;21.60;54.00;;;;;;5068863;28;20897;-71
2023/07/15 01:55:57;;;;;;;2.70;1.90;;;21.50;53.90;;;;;;5068722;28;20473;-70
2023/07/15 01:58:25;;;;;;;2.88;2.30;;;21.50;54.50;;;;;;5070669;28;20419;-70
2023/07/15 02:00:51;;;;;;;2.30;2.03;;;21.50;54.60;;;;;;5070390;28;20419;-70
2023/07/15 02:03:18;;;;;;;3.27;2.20;;;21.50;54.70;;;;;;5069976;28;20420;-70
2023/07/15 02:05:45;;;;;;;2.67;2.00;;;21.50;55.30;;;;;;5068508;28;20423;-69
2023/07/15 02:08:12;;;;;;;3.25;2.05;;;21.40;55.70;;;;;;5069633;28;20416;-69
2023/07/15 02:10:38;;;;;;;2.60;2.00;;;21.40;55.40;;;;;;5067228;28;20925;-70
2023/07/15 02:13:05;;;;;;;3.38;2.13;;;21.40;55.70;;;;;;5069454;28;20420;-70
2023/07/15 02:15:33;;;;;;;3.10;2.00;;;21.40;56.30;;;;;;5068942;28;20862;-70
2023/07/15 02:18:00;;;;;;;3.08;2.20;;;21.30;55.70;;;;;;5069780;28;20419;-70
2023/07/15 02:20:26;;;;;;;2.80;2.00;;;21.30;56.70;;;;;;5067634;28;20431;-71
2023/07/15 02:22:53;;;;;;;3.42;2.38;;;21.30;56.90;;;;;;5069209;28;20419;-71
2023/07/15 02:25:20;;;;;;;3.28;2.10;;;21.30;56.90;;;;;;5067695;28;20423;-69
2023/07/15 02:27:47;;;;;;;3.00;2.00;;;21.30;57.90;;;;;;5068976;28;20442;-70
2023/07/15 02:30:14;;;;;;;4.10;2.20;;;21.40;58.00;;;;;;5068565;28;20486;-71
2023/07/15 02:32:43;;;;;;;2.20;1.92;;;21.40;58.00;;;;;;5069470;28;20414;-71
2023/07/15 02:35:11;;;;;;;3.30;1.80;;;21.30;57.50;;;;;;5069538;28;20400;-70
2023/07/15 02:37:39;;;;;;;2.60;2.10;;;21.30;57.60;;;;;;5067346;28;20672;-72
2023/07/15 02:40:09;;;;;;;2.72;2.00;;;21.30;57.80;;;;;;5067237;28;20419;-70
2023/07/15 02:42:36;;;;;;;4.07;2.30;;;21.30;57.90;;;;;;5068925;28;20447;-71
2023/07/15 02:45:04;;;;;;;3.55;2.10;;;21.30;57.40;;;;;;5068943;28;20438;-70
2023/07/15 02:47:31;;;;;;;2.10;1.85;;;21.20;57.40;;;;;;5075841;28;20419;-71
2023/07/15 02:50:03;;;;;;;2.65;2.00;;;21.20;57.00;;;;;;5075010;28;20421;-71
2023/07/15 02:52:30;;;;;;;3.00;1.90;;;21.10;57.30;;;;;;5075878;28;20415;-71
2023/07/15 02:54:57;;;;;;;3.00;2.10;;;21.10;57.40;;;;;;5070217;28;20431;-70
2023/07/15 02:57:23;;;;;;;3.80;2.20;;;21.10;57.40;;;;;;5074643;28;20427;-71
2023/07/15 02:59:50;;;;;;;3.17;2.17;;;21.10;57.80;;;;;;5074809;28;20445;-70
2023/07/15 03:02:17;;;;;;;3.03;2.00;;;21.10;58.00;;;;;;5075304;28;20415;-70
2023/07/15 03:04:44;;;;;;;2.60;1.98;;;21.10;58.00;;;;;;5075071;28;20763;-70
2023/07/15 03:07:13;;;;;;;2.70;2.15;;;21.00;58.50;;;;;;5075287;28;20415;-70
2023/07/15 03:09:40;;;;;;;3.60;2.00;;;21.00;58.50;;;;;;5073668;28;20477;-71
2023/07/15 03:12:08;;;;;;;2.33;1.90;;;21.00;58.80;;;;;;5068739;28;20782;-69
2023/07/15 03:14:35;;;;;;;4.72;2.25;;;21.00;58.00;;;;;;5075095;28;20418;-70
2023/07/15 03:17:02;;;;;;;2.30;1.80;;;21.00;58.30;;;;;;5075262;28;20465;-70
2023/07/15 03:19:30;;;;;;;3.65;2.10;;;20.90;58.60;;;;;;5075048;28;20414;-70
2023/07/15 03:21:57;;;;;;;2.50;1.80;;;21.00;59.00;;;;;;5075099;28;20419;-70
2023/07/15 03:24:25;;;;;;;2.40;2.10;;;20.90;59.80;;;;;;5075103;28;20425;-70
2023/07/15 03:26:51;;;;;;;3.35;2.20;;;20.90;59.60;;;;;;5074407;28;20945;-71
2023/07/15 03:29:18;;;;;;;2.92;1.90;;;20.90;60.00;;;;;;5074681;28;20457;-69
2023/07/15 03:31:45;;;;;;;2.53;2.20;;;20.90;60.00;;;;;;5074728;28;20415;-70
2023/07/15 03:34:12;;;;;;;3.10;2.20;;;20.90;60.10;;;;;;5075021;28;20850;-69
2023/07/15 03:36:38;;;;;;;2.90;2.10;;;20.90;60.50;;;;;;5074772;28;20407;-70
2023/07/15 03:39:06;;;;;;;2.60;2.40;;;20.80;60.70;;;;;;5074454;28;20826;-70
2023/07/15 03:41:34;;;;;;;3.05;2.17;;;20.80;60.70;;;;;;5074787;28;20767;-70
2023/07/15 03:44:00;;;;;;;2.63;2.30;;;20.80;60.30;;;;;;5055101;28;20791;-69
2023/07/15 03:46:27;;;;;;;3.53;1.98;;;20.70;61.20;;;;;;5055036;28;20428;-70
2023/07/15 03:48:54;;;;;;;2.70;2.10;;;20.70;60.60;;;;;;5054212;28;20883;-69
2023/07/15 03:51:21;;;;;;;2.10;1.90;;;20.60;61.40;;;;;;5055110;28;20429;-69
2023/07/15 03:53:47;;;;;;;2.90;2.03;;;20.60;61.80;;;;;;5054549;28;20737;-69
2023/07/15 03:56:14;;;;;;;3.50;2.28;;;20.60;62.30;;;;;;5072978;28;20431;-70
2023/07/15 03:58:42;;;;;;;2.80;2.33;;;20.60;61.50;;;;;;5076890;28;20411;-70
2023/07/15 04:01:09;;;;;;;3.05;2.00;;;20.60;61.40;;;;;;5071505;28;20906;-70
2023/07/15 04:03:35;;;;;;;2.70;2.40;;;20.60;61.00;;;;;;5071923;28;20610;-71
2023/07/15 04:06:03;;;;;;;3.90;2.30;;;20.60;60.20;;;;;;5071721;28;20435;-70
2023/07/15 04:08:30;;;;;;;3.65;2.17;;;20.70;60.50;;;;;;5071049;28;20762;-70
2023/07/15 04:10:56;;;;;;;2.23;2.03;;;20.70;60.30;;;;;;5070637;28;20431;-70
2023/07/15 04:13:23;;;;;;;2.40;2.00;;;20.70;60.30;;;;;;5071371;28;20909;-69
2023/07/15 04:15:51;;;;;;;3.72;2.00;;;20.70;60.70;;;;;;5071422;28;20412;-70
2023/07/15 04:18:18;;;;;;;2.70;1.95;;;20.70;60.70;;;;;;5071271;28;20411;-70
2023/07/15 04:20:45;;;;;;;4.32;2.17;;;20.80;61.00;;;;;;5070597;28;20813;-71
2023/07/15 04:23:11;;;;;;;2.92;2.30;;;20.80;60.70;;;;;;5071151;28;20412;-70
2023/07/15 04:25:39;;;;;;;2.10;1.70;;;20.80;60.90;;;;;;5068196;28;20516;-70
2023/07/15 04:28:06;;;;;;;2.37;1.90;;;20.80;61.00;;;;;;5071370;28;20425;-70
2023/07/15 04:30:33;;;;;;;2.45;2.10;;;20.90;60.90;;;;;;5071047;28;20866;-70
2023/07/15 04:33:02;;;;;;;3.60;2.20;;;20.90;60.70;;;;;;5071524;28;20881;-70
2023/07/15 04:35:29;;;;;;;2.70;2.10;;;20.90;60.90;;;;;;5080962;28;20494;-71
2023/07/15 04:37:56;;;;;;;3.83;2.40;;;21.00;60.20;;;;;;5094925;28;20396;-71
2023/07/15 04:40:22;;;;;;;2.80;2.20;;;21.00;59.90;;;;;;5092800;28;20420;-70
2023/07/15 04:42:49;;;;;;;2.90;2.10;;;21.00;59.70;;;;;;5094912;28;20487;-70
2023/07/15 04:45:16;;;;;;;4.70;2.10;;;21.00;59.50;;;;;;5078243;28;20408;-71
2023/07/15 04:47:42;;;;;;;2.78;2.08;;;21.00;60.10;;;;;;5072780;28;20412;-69
2023/07/15 04:50:11;;;;;;;2.40;1.80;;;21.00;59.80;;;;;;5070790;28;20408;-70
2023/07/15 04:52:37;;;;;;;2.20;1.90;;;21.10;59.70;;;;;;5071031;28;20422;-70
2023/07/15 04:55:05;;;;;;;2.90;2.10;;;21.10;59.80;;;;;;5069450;28;21032;-71
2023/07/15 04:57:32;;;;;;;3.35;2.10;;;21.10;60.00;;;;;;5071046;28;20412;-69
2023/07/15 04:59:59;;;;;;;2.80;2.13;;;21.10;60.50;;;;;;5070038;28;20411;-70
2023/07/15 05:02:25;;;;;;;2.75;2.40;;;21.20;61.30;;;;;;5070593;28;20411;-70
2023/07/15 05:04:52;;;;;;;3.20;2.20;;;21.20;61.80;;;;;;5070546;28;20415;-69
2023/07/15 05:07:21;;;;;;;2.38;1.85;;;21.20;61.70;;;;;;5070634;28;20434;-70
2023/07/15 05:09:49;;;;;;;3.27;2.10;;;21.30;61.70;;;;;;5063428;28;20509;-70
2023/07/15 05:12:15;;;;;;;2.90;2.45;;;21.30;60.50;;;;;;5070503;28;20421;-71
2023/07/15 05:14:42;;;;;;;3.50;2.03;;;21.30;60.20;;;;;;5070289;28;20754;-70
2023/07/15 05:17:09;;;;;;;2.20;1.80;;;21.30;60.00;;;;;;5069664;28;20465;-71
2023/07/15 05:19:36;;;;;;;3.85;2.20;;;21.30;59.90;;;;;;5069720;28;20410;-69
2023/07/15 05:22:04;;;;;;;2.65;1.80;;;21.40;59.60;;;;;;5079537;22;20437;-66
2023/07/15 05:24:32;;;;;;;3.00;1.92;;;21.40;59.20;;;;;;5045535;28;20447;-66
2023/07/15 05:26:59;;;;;;;2.80;1.87;;;21.40;58.90;;;;;;5047926;28;20429;-66
2023/07/15 05:29:25;;;;;;;3.85;2.30;;;21.50;58.40;;;;;;5046211;28;20429;-67
2023/07/15 05:31:52;;;;;;;3.00;2.30;;;21.50;58.10;;;;;;5038049;28;20498;-66
2023/07/15 05:34:20;;;;;;;3.83;2.20;;;21.60;59.00;;;;;;5029100;28;20438;-67
2023/07/15 05:36:47;;;;;;;2.70;2.03;;;21.60;59.20;;;;;;5028953;28;20430;-66
2023/07/15 05:39:14;;;;;;;3.50;2.20;;;21.70;59.40;;;;;;5033342;28;20421;-66
2023/07/15 05:41:42;;;;;;;2.72;1.95;;;21.70;59.00;;;;;;5040322;28;20422;-67
2023/07/15 05:44:09;;;;;;;2.67;1.90;;;21.80;58.80;;;;;;5048875;28;20406;-66
2023/07/15 05:46:36;;;;;;;3.80;2.00;;;21.80;58.00;;;;;;5049028;28;20802;-67
2023/07/15 05:49:04;;;;;;;2.88;1.92;;;21.90;58.20;;;;;;5048096;28;20731;-66
2023/07/15 05:51:31;;;;;;;3.10;1.80;;;21.90;57.50;;;;;;5044293;28;20453;-67
2023/07/15 05:53:58;;;;;;;2.20;2.00;;;22.00;57.60;;;;;;5036804;28;20458;-66
2023/07/15 05:56:24;;;;;;;2.00;1.80;;;22.00;57.60;;;;;;5044178;28;20413;-65
2023/07/15 05:58:53;;;;;;;3.00;2.00;;;22.10;57.60;;;;;;5048075;28;20410;-64
2023/07/15 06:01:19;;;;;;;2.75;1.92;;;22.10;57.30;;;;;;5037426;28;20426;-68
2023/07/15 06:03:46;;;;;;;3.20;1.80;;;22.20;57.20;;;;;;5028538;28;20810;-65
2023/07/15 06:06:14;;;;;;;2.80;1.90;;;22.30;56.90;;;;;;5027544;28;20437;-64
2023/07/15 06:08:40;;;;;;;2.40;1.80;;;22.30;56.20;;;;;;5037237;28;20449;-66
2023/07/15 06:11:09;;;;;;;2.50;2.10;;;22.40;56.00;;;;;;5047990;28;20417;-65
2023/07/15 06:13:35;;;;;;;2.40;1.75;;;22.60;54.50;;;;;;5048219;28;21002;-64
2023/07/15 06:16:04;;;;;;;3.50;1.88;;;22.70;55.50;;;;;;5048734;28;20420;-67
2023/07/15 06:18:30;;;;;;;2.67;1.85;;;22.80;55.10;;;;;;5048223;28;20417;-66
2023/07/15 06:20:57;;;;;;;2.80;1.90;;;22.90;55.10;;;;;;5042289;28;20433;-65
2023/07/15 06:23:24;;;;;;;3.33;2.00;;;23.10;52.90;;;;;;5039831;28;20417;-67
2023/07/15 06:25:50;;;;;;;2.43;1.87;;;23.20;52.90;;;;;;5039461;28;20434;-67
2023/07/15 06:28:17;;;;;;;1.95;1.70;;;23.40;53.00;;;;;;5039981;28;20441;-67
2023/07/15 06:30:48;;;;;;;3.60;1.75;;;23.50;52.60;;;;;;5048022;28;20531;-65
2023/07/15 06:33:16;;;;;;;2.40;1.70;;;23.70;51.70;;;;;;5039131;28;20929;-65
2023/07/15 06:35:43;;;;;;;3.20;1.70;;;23.90;51.50;;;;;;5042688;28;20465;-65
2023/07/15 06:38:09;;;;;;;2.30;1.70;;;24.00;51.10;;;;;;5039718;28;20424;-66
2023/07/15 06:40:36;;;;;;;2.10;1.70;;;24.10;51.00;;;;;;5047259;28;20421;-65
2023/07/15 06:43:03;;;;;;;1.90;1.50;;;24.30;49.80;;;;;;5048138;28;20413;-65
2023/07/15 06:45:34;;;;;;;2.60;1.80;;;24.40;49.30;;;;;;5048215;28;20443;-64
2023/07/15 06:48:00;;;;;;;2.20;1.95;;;24.50;49.20;;;;;;5048723;28;20534;-65
2023/07/15 06:50:29;;;;;;;3.20;1.75;;;24.60;49.00;;;;;;5040937;28;20778;-65
2023/07/15 06:52:55;;;;;;;1.90;1.55;;;24.60;48.60;;;;;;5039578;28;20418;-65
2023/07/15 06:55:22;;;;;;;4.28;1.75;;;24.60;48.00;;;;;;5047829;28;20733;-68
2023/07/15 06:57:49;;;;;;;3.50;1.75;;;24.70;48.00;;;;;;5047574;28;20492;-65
2023/07/15 07:00:16;;;;;;;2.27;1.70;;;24.80;48.00;;;;;;5047682;28;20428;-67
2023/07/15 07:02:43;;;;;;;2.30;1.70;;;24.80;48.20;;;;;;5047649;28;20417;-67
2023/07/15 07:05:10;;;;;;;3.20;1.80;;;24.80;48.10;;;;;;5043460;28;20439;-68
2023/07/15 07:07:38;;;;;;;3.90;1.70;;;24.80;48.00;;;;;;5039558;28;20740;-67
2023/07/15 07:10:05;;;;;;;3.60;2.00;;;24.90;46.80;;;;;;5047593;28;20531;-67
2023/07/15 07:12:32;;;;;;;3.35;1.70;;;24.90;47.90;;;;;;5047960;28;20417;-66
2023/07/15 07:14:59;;;;;;;2.13;1.70;;;24.90;48.30;;;;;;5047708;28;20455;-67
2023/07/15 07:17:26;;;;;;;5.13;1.80;;;24.80;48.40;;;;;;5047923;28;20416;-67
2023/07/15 07:19:52;;;;;;;2.10;1.67;;;24.90;48.70;;;;;;5038137;28;20439;-67
2023/07/15 07:22:19;;;;;;;2.90;1.63;;;24.80;47.80;;;;;;5039378;28;20421;-67
2023/07/15 07:24:49;;;;;;;4.20;1.77;;;24.80;47.50;;;;;;5047793;28;20421;-67
2023/07/15 07:27:16;;;;;;;2.60;1.77;;;24.80;46.70;;;;;;5047694;28;20518;-68
2023/07/15 07:29:42;;;;;;;3.17;1.70;;;24.70;47.20;;;;;;5047045;28;20425;-67
2023/07/15 07:32:09;;;;;;;2.67;1.90;;;24.70;49.20;;;;;;5047955;28;20413;-67
2023/07/15 07:34:36;;;;;;;2.60;1.63;;;24.60;54.00;;;;;;5044137;28;20440;-66
2023/07/15 07:37:03;;;;;;;2.45;1.80;;;24.60;54.10;;;;;;5042947;28;20409;-67
2023/07/15 07:39:30;;;;;;;3.13;1.80;;;24.40;56.70;;;;;;5050805;28;20405;-65
2023/07/15 07:41:58;;;;;;;4.35;2.13;;;24.20;58.40;;;;;;5051115;28;20505;-68
2023/07/15 07:44:24;;;;;;;2.08;1.50;;;24.10;58.70;;;;;;5051513;28;20409;-68
2023/07/15 07:46:51;;;;;;;3.00;1.40;;;23.90;60.80;;;;;;5051209;28;20788;-67
2023/07/15 07:49:18;;;;;;;3.13;1.80;;;23.80;60.60;;;;;;5046606;28;20900;-67
2023/07/15 07:51:44;;;;;;;3.55;1.80;;;23.70;61.80;;;;;;5042512;28;20413;-67
2023/07/15 07:54:11;;;;;;;3.30;1.85;;;23.70;62.30;;;;;;5050831;28;20425;-67
2023/07/15 07:56:38;;;;;;;3.40;1.80;;;23.60;64.00;;;;;;5050988;28;20409;-67
2023/07/15 07:59:06;;;;;;;2.87;2.10;;;23.60;60.70;;;;;;5050506;28;20424;-67
2023/07/15 08:01:33;;;;;;;2.30;1.97;;;23.60;63.20;;;;;;5050468;28;20413;-66
2023/07/15 08:04:01;;;;;;;2.65;2.00;;;23.60;64.40;;;;;;5045072;28;20430;-65
2023/07/15 08:06:28;;;;;;;3.08;1.70;;;23.50;65.10;;;;;;5038787;28;20422;-65
2023/07/15 08:08:55;;;;;;;2.50;2.05;;;23.50;64.50;;;;;;5049427;28;20508;-65
2023/07/15 08:11:22;;;;;;;2.67;1.95;;;23.40;64.60;;;;;;5050237;28;20832;-67
2023/07/15 08:13:48;;;;;;;3.25;2.05;;;23.40;62.70;;;;;;5050594;28;20432;-67
2023/07/15 08:16:36;;;;;;;3.80;2.20;;;23.30;66.60;;;;;;5050223;28;20438;-65
2023/07/15 08:19:04;;;;;;;3.47;2.30;;;23.20;71.10;;;;;;5042700;28;20481;-65
2023/07/15 08:21:31;;;;;;;5.00;2.50;;;22.90;75.80;;;;;;5041779;28;20426;-67
2023/07/15 08:23:58;;;;;;;4.38;2.60;;;22.70;76.60;;;;;;5050196;28;20410;-67
2023/07/15 08:26:26;;;;;;;4.20;2.60;;;22.40;79.50;;;;;;5050248;28;20504;-67
2023/07/15 08:28:55;;;;;;;4.15;2.58;;;22.20;80.30;;;;;;5049470;28;20847;-67
2023/07/15 08:31:22;;;;;;;4.85;2.70;;;22.00;88.10;;;;;;5049773;28;20823;-67
2023/07/15 08:33:50;;;;;;;3.70;2.53;;;21.70;90.00;;;;;;5044652;28;20446;-67
2023/07/15 08:36:16;;;;;;;2.85;2.40;;;21.50;89.00;;;;;;5037416;28;20508;-67
2023/07/15 08:38:43;;;;;;;4.80;2.40;;;21.40;91.00;;;;;;5039111;28;20461;-68
2023/07/15 08:41:11;;;;;;;4.00;2.30;;;21.20;90.90;;;;;;5049797;28;20444;-66
2023/07/15 08:43:38;;;;;;;3.22;2.80;;;21.10;93.00;;;;;;5049846;28;20740;-67
2023/07/15 08:46:11;;;;;;;4.63;2.70;;;21.00;93.30;;;;;;5049881;28;20516;-67
2023/07/15 08:48:38;;;;;;;3.28;2.97;;;21.00;96.00;;;;;;5038921;28;20442;-67
2023/07/15 08:51:06;;;;;;;5.70;3.10;;;20.90;94.90;;;;;;5041088;28;20413;-66
2023/07/15 08:53:34;;;;;;;3.17;2.60;;;20.80;95.70;;;;;;5049864;28;20440;-66
2023/07/15 08:56:01;;;;;;;4.25;2.95;;;20.70;96.70;;;;;;5049744;28;20417;-65
2023/07/15 08:58:28;;;;;;;3.67;2.78;;;20.50;98.10;;;;;;5050056;28;20865;-66
2023/07/15 09:00:55;;;;;;;4.40;3.40;;;20.40;97.60;;;;;;5044073;28;20864;-66
2023/07/15 09:03:23;;;;;;;4.05;2.60;;;20.30;99.70;;;;;;5037056;28;20429;-66
2023/07/15 09:05:49;;;;;;;3.05;2.60;;;20.20;98.00;;;;;;5036923;28;20947;-66
2023/07/15 09:08:17;;;;;;;2.92;2.60;;;20.20;97.80;;;;;;5037455;28;20434;-66
2023/07/15 09:10:52;;;;;;;4.00;2.58;;;20.10;98.70;;;;;;5028741;28;20800;-66
2023/07/15 09:13:24;;;;;;;3.63;3.10;;;20.10;98.40;;;;;;5029558;28;20426;-66
2023/07/15 09:15:51;;;;;;;5.95;3.60;;;20.10;99.80;;;;;;5029249;28;20438;-66
2023/07/15 09:18:18;;;;;;;5.60;3.93;;;20.10;99.90;;;;;;5034571;28;20440;-66
2023/07/15 09:20:45;;;;;;;4.85;3.55;;;20.10;99.90;;;;;;5040189;28;20417;-66
2023/07/15 09:23:12;;;;;;;4.97;3.60;;;20.00;99.90;;;;;;5049135;28;20413;-66
2023/07/15 09:25:50;;;;;;;6.15;4.30;;;20.00;99.90;;;;;;5049143;28;20471;-66
2023/07/15 09:28:16;;;;;;;4.78;3.53;;;20.00;99.90;;;;;;5048771;28;20461;-66
2023/07/15 09:30:43;;;;;;;4.90;3.50;;;20.00;99.90;;;;;;5048472;28;20753;-66
2023/07/15 09:33:27;;;;;;;5.50;4.10;;;19.90;99.90;;;;;;5038861;28;20433;-66
2023/07/15 09:35:54;;;;;;;5.18;4.10;;;19.90;99.90;;;;;;5040819;28;20460;-66
2023/07/15 09:38:22;;;;;;;5.68;4.20;;;19.70;99.90;;;;;;5048579;28;20440;-66
2023/07/15 09:40:50;;;;;;;4.80;4.30;;;19.60;99.90;;;;;;5047992;28;20780;-66
2023/07/15 09:43:17;;;;;;;5.95;4.70;;;19.60;99.90;;;;;;5048337;28;20413;-66
2023/07/15 09:45:45;;;;;;;5.72;4.70;;;19.60;99.90;;;;;;5048506;28;20461;-66
2023/07/15 09:48:13;;;;;;;5.70;5.07;;;19.70;99.90;;;;;;5036897;28;20488;-65
2023/07/15 09:50:41;;;;;;;8.35;5.25;;;19.80;99.90;;;;;;5044962;28;20532;-66
2023/07/15 09:53:09;;;;;;;7.20;5.30;;;19.80;99.90;;;;;;5048714;28;20420;-65
2023/07/15 09:55:38;;;;;;;6.85;5.43;;;19.90;99.90;;;;;;5048232;28;20812;-65
2023/07/15 09:58:16;;;;;;;7.20;5.53;;;20.00;99.90;;;;;;5048549;28;20417;-66
2023/07/15 10:00:47;;;;;;;6.30;5.70;;;20.00;99.90;;;;;;5037301;28;20872;-66
2023/07/15 10:03:22;;;;;;;5.25;4.75;;;19.90;99.90;;;;;;5035904;28;20438;-65
2023/07/15 10:05:49;;;;;;;5.60;4.50;;;19.80;99.90;;;;;;5047122;28;20417;-65
2023/07/15 10:08:17;;;;;;;5.50;5.00;;;19.80;99.90;;;;;;5048183;28;20618;-65
2023/07/15 10:10:44;;;;;;;4.80;4.30;;;19.80;99.90;;;;;;5047628;28;20413;-66
2023/07/15 10:13:14;;;;;;;5.20;4.40;;;19.80;99.90;;;;;;5048194;28;20508;-66
2023/07/15 10:15:42;;;;;;;6.43;5.00;;;19.70;99.90;;;;;;5036089;28;20460;-65
2023/07/15 10:18:13;;;;;;;5.10;4.60;;;19.80;99.90;;;;;;5032108;28;20501;-66
2023/07/15 10:20:43;;;;;;;4.63;4.20;;;19.80;99.90;;;;;;5029988;28;20501;-65
2023/07/15 10:23:11;;;;;;;6.38;5.03;;;19.80;99.90;;;;;;5028285;28;20492;-66
2023/07/15 10:25:42;;;;;;;5.65;4.82;;;19.80;99.90;;;;;;5028155;28;20901;-66
2023/07/15 10:28:15;;;;;;;5.18;4.55;;;19.80;99.90;;;;;;5027904;28;20504;-65
2023/07/15 10:31:06;;;;;;;4.90;3.80;;;19.80;99.90;;;;;;5031522;28;20458;-66
2023/07/15 10:33:35;;;;;;;5.25;4.75;;;19.80;99.90;;;;;;5039636;28;20545;-66
2023/07/15 10:36:04;;;;;;;5.30;4.80;;;19.70;99.90;;;;;;5047669;28;20424;-65
2023/07/15 10:38:32;;;;;;;5.60;4.83;;;19.70;99.90;;;;;;5047924;28;20970;-66
2023/07/15 10:41:02;;;;;;;5.35;4.85;;;19.70;99.90;;;;;;5047414;28;20891;-66
2023/07/15 10:43:41;;;;;;;5.78;4.70;;;19.70;99.90;;;;;;5048391;28;20429;-66
2023/07/15 10:46:08;;;;;;;4.82;4.43;;;19.80;99.90;;;;;;5038555;28;20502;-66
2023/07/15 10:48:36;;;;;;;6.55;4.80;;;19.80;99.90;;;;;;5039352;28;20440;-66
2023/07/15 10:51:05;;;;;;;5.50;5.00;;;19.90;99.90;;;;;;5047207;28;20413;-65
2023/07/15 10:53:32;;;;;;;5.20;4.70;;;19.90;99.90;;;;;;5047931;28;20524;-66
2023/07/15 10:56:00;;;;;;;5.40;4.90;;;20.00;99.90;;;;;;5048101;28;20760;-66
2023/07/15 10:58:28;;;;;;;5.07;4.53;;;20.00;99.90;;;;;;5048043;28;20412;-66
2023/07/15 11:01:00;;;;;;;5.78;4.50;;;20.10;99.90;;;;;;5039747;28;20697;-65
2023/07/15 11:03:28;;;;;;;4.70;3.90;;;20.10;99.90;;;;;;5039376;28;20908;-65
2023/07/15 11:05:57;;;;;;;4.23;3.77;;;20.20;99.90;;;;;;5047784;28;20417;-66
2023/07/15 11:08:24;;;;;;;4.10;3.50;;;20.30;99.90;;;;;;5051352;28;20456;-66
2023/07/15 11:10:56;;;;;;;3.92;3.53;;;20.50;99.90;;;;;;5051217;28;20429;-65
2023/07/15 11:13:23;;;;;;;3.30;3.00;;;20.70;99.90;;;;;;5051932;28;20436;-65
2023/07/15 11:15:49;;;;;;;4.00;3.20;;;20.80;99.90;;;;;;5044972;28;20536;-65
2023/07/15 11:18:18;;;;;;;5.20;3.27;;;20.80;99.90;;;;;;5045544;28;20862;-66
2023/07/15 11:20:46;;;;;;;4.00;3.63;;;20.80;99.90;;;;;;5051161;28;20419;-66
2023/07/15 11:23:14;;;;;;;4.10;3.70;;;20.80;99.90;;;;;;5051510;28;20428;-66
2023/07/15 11:25:41;;;;;;;4.18;3.88;;;20.90;99.90;;;;;;5051175;28;20417;-66
2023/07/15 11:28:08;;;;;;;4.30;3.70;;;20.90;99.90;;;;;;5051487;28;20433;-66
2023/07/15 11:30:35;;;;;;;4.45;3.65;;;20.90;99.90;;;;;;5041526;28;20424;-66
2023/07/15 11:33:02;;;;;;;4.40;4.00;;;21.00;99.90;;;;;;5043439;28;20424;-66
2023/07/15 11:35:33;;;;;;;5.70;4.20;;;21.10;99.90;;;;;;5051492;28;20500;-66
2023/07/15 11:38:00;;;;;;;5.90;4.33;;;21.10;99.90;;;;;;5051483;28;20503;-66
2023/07/15 11:40:26;;;;;;;4.85;4.22;;;21.20;99.90;;;;;;5051001;28;20420;-66
2023/07/15 11:42:54;;;;;;;4.50;4.10;;;21.20;99.90;;;;;;5050848;28;20440;-66
2023/07/15 11:45:24;;;;;;;4.30;3.90;;;21.30;99.90;;;;;;5043677;28;20429;-66
2023/07/15 11:47:54;;;;;;;4.40;3.45;;;21.60;99.90;;;;;;5042951;28;20512;-66
2023/07/15 11:50:25;;;;;;;4.32;3.58;;;21.70;99.90;;;;;;5050616;28;20779;-66
2023/07/15 11:52:55;;;;;;;4.18;3.78;;;21.80;99.90;;;;;;5051093;28;20428;-67
2023/07/15 11:55:25;;;;;;;5.78;3.90;;;21.80;99.90;;;;;;5050950;28;20429;-67
2023/07/15 11:57:52;;;;;;;4.45;3.50;;;21.90;99.90;;;;;;5050216;28;20452;-67
2023/07/15 12:00:27;;;;;;;3.80;3.50;;;22.00;99.90;;;;;;5039803;28;20437;-67
2023/07/15 12:02:54;;;;;;;4.97;3.92;;;22.10;99.90;;;;;;5044708;28;20441;-67
2023/07/15 12:05:21;;;;;;;4.97;3.80;;;22.20;99.90;;;;;;5042308;28;20892;-67
2023/07/15 12:07:49;;;;;;;4.50;3.60;;;22.30;99.90;;;;;;5050910;28;20413;-67
2023/07/15 12:10:17;;;;;;;3.90;3.60;;;22.40;99.90;;;;;;5050302;28;21056;-67
2023/07/15 12:12:45;;;;;;;4.00;3.60;;;22.40;99.90;;;;;;5048634;28;20413;-67
2023/07/15 12:15:13;;;;;;;4.20;3.37;;;22.40;99.90;;;;;;5038487;28;20411;-67
2023/07/15 12:17:40;;;;;;;3.97;3.53;;;22.40;99.80;;;;;;5047900;28;20514;-67
2023/07/15 12:20:07;;;;;;;4.93;3.92;;;22.30;98.90;;;;;;5049250;28;20417;-67
2023/07/15 12:22:34;;;;;;;4.18;3.78;;;22.30;99.50;;;;;;5042826;28;20435;-67
2023/07/15 12:25:01;;;;;;;5.25;4.40;;;22.20;99.40;;;;;;5041822;28;20421;-66
2023/07/15 12:27:30;;;;;;;4.47;4.07;;;22.20;99.90;;;;;;5050391;28;20421;-67
2023/07/15 12:29:57;;;;;;;3.87;3.47;;;22.20;99.90;;;;;;5038574;28;20431;-67
2023/07/15 12:32:24;;;;;;;4.38;3.97;;;22.30;99.40;;;;;;5045463;28;20424;-67
2023/07/15 12:34:50;;;;;;;4.28;3.88;;;22.30;98.00;;;;;;5050715;28;20857;-67
2023/07/15 12:37:18;;;;;;;4.32;3.92;;;22.40;98.90;;;;;;5050580;28;20856;-69
2023/07/15 12:39:45;;;;;;;4.00;3.70;;;22.50;98.60;;;;;;5051827;28;20862;-67
2023/07/15 12:42:11;;;;;;;4.88;4.47;;;22.40;99.50;;;;;;5049929;28;20409;-67
2023/07/15 12:44:39;;;;;;;4.47;4.07;;;22.40;99.00;;;;;;5039420;28;20519;-67
2023/07/15 12:47:06;;;;;;;5.07;4.40;;;22.40;98.70;;;;;;5042848;28;20514;-67
2023/07/15 12:49:33;;;;;;;5.80;4.25;;;22.30;99.70;;;;;;5046216;28;20561;-67
2023/07/15 12:51:59;;;;;;;5.10;4.70;;;22.30;99.90;;;;;;5030526;28;20429;-67